Time;durP1;ratioP1;P1;durP2;ratioP2;P2;SDS_P1;SDS_P2;PMS_P1;PMS_P2;Temp;Humidity;BMP_temperature;BMP_pressure;BME280_temperature;BME280_humidity;BME280_pressure;Samples;Min_cycle;Max_cycle;Signal;HPM_P1;HPM_P2
2022/08/26 00:01:36;;;;;;;6.30;5.70;;;30.00;57.10;;;;;;4878758;29;21015;-72
2022/08/26 00:04:02;;;;;;;6.23;5.13;;;29.90;57.10;;;;;;4879140;29;20968;-72
2022/08/26 00:06:30;;;;;;;7.03;6.10;;;29.90;57.10;;;;;;4862304;29;20470;-72
2022/08/26 00:09:01;;;;;;;6.73;5.50;;;29.90;57.10;;;;;;4877516;29;20426;-72
2022/08/26 00:11:29;;;;;;;5.50;5.10;;;29.90;57.10;;;;;;4877973;29;20847;-72
2022/08/26 00:14:01;;;;;;;6.27;5.70;;;29.90;57.20;;;;;;4862289;29;20442;-72
2022/08/26 00:16:30;;;;;;;5.87;5.37;;;29.80;57.10;;;;;;4861535;29;20450;-72
2022/08/26 00:19:01;;;;;;;8.10;5.70;;;29.80;57.10;;;;;;4878701;29;20480;-72
2022/08/26 00:21:27;;;;;;;6.23;5.60;;;29.80;57.20;;;;;;4877704;29;20442;-72
2022/08/26 00:23:55;;;;;;;6.47;5.83;;;29.80;57.20;;;;;;4878473;29;20529;-72
2022/08/26 00:26:24;;;;;;;6.20;5.60;;;29.80;57.20;;;;;;4878658;29;20490;-72
2022/08/26 00:28:50;;;;;;;5.97;5.50;;;29.80;57.20;;;;;;4862038;29;20861;-72
2022/08/26 00:31:18;;;;;;;6.27;5.77;;;29.70;57.20;;;;;;4862112;29;20457;-71
2022/08/26 00:33:44;;;;;;;6.10;5.60;;;29.70;57.20;;;;;;4877328;29;20482;-72
2022/08/26 00:36:13;;;;;;;6.90;6.20;;;29.70;57.20;;;;;;4868598;29;20534;-72
2022/08/26 00:38:41;;;;;;;6.80;5.07;;;29.70;57.20;;;;;;4866886;29;20469;-71
2022/08/26 00:41:07;;;;;;;6.00;5.50;;;29.60;57.10;;;;;;4877736;29;20430;-72
2022/08/26 00:43:36;;;;;;;5.87;5.37;;;29.70;57.20;;;;;;4877399;29;20537;-72
2022/08/26 00:46:18;;;;;;;6.33;5.73;;;29.60;57.10;;;;;;4878317;29;20425;-72
2022/08/26 00:48:48;;;;;;;6.87;5.30;;;29.60;57.10;;;;;;4877026;29;20434;-72
2022/08/26 00:51:23;;;;;;;6.97;5.30;;;29.60;57.10;;;;;;4877235;29;20413;-72
2022/08/26 00:54:03;;;;;;;6.40;5.80;;;29.60;57.10;;;;;;4876506;29;20541;-72
2022/08/26 00:56:43;;;;;;;7.60;6.00;;;29.60;57.20;;;;;;4877098;29;20422;-72
2022/08/26 00:59:12;;;;;;;7.13;6.43;;;29.50;57.10;;;;;;4877881;29;20441;-71
2022/08/26 01:01:43;;;;;;;6.37;5.87;;;29.50;57.30;;;;;;4861713;29;20427;-72
2022/08/26 01:04:17;;;;;;;7.07;5.70;;;29.50;57.10;;;;;;4876966;29;20462;-72
2022/08/26 01:06:43;;;;;;;6.23;5.67;;;29.50;57.10;;;;;;4876480;29;20461;-72
2022/08/26 01:09:12;;;;;;;6.20;5.30;;;29.50;57.10;;;;;;4877854;29;20418;-71
2022/08/26 01:11:45;;;;;;;6.10;5.60;;;29.40;57.10;;;;;;4876935;29;20478;-71
2022/08/26 01:14:15;;;;;;;6.60;5.90;;;29.40;57.10;;;;;;4877800;29;20459;-72
2022/08/26 01:16:42;;;;;;;6.00;5.50;;;29.40;57.20;;;;;;4876575;29;20438;-72
2022/08/26 01:19:50;;;;;;;7.67;5.83;;;29.40;57.20;;;;;;4876808;29;20422;-72
2022/08/26 01:22:31;;;;;;;7.10;6.30;;;29.40;57.20;;;;;;4863512;29;20477;-72
2022/08/26 01:25:04;;;;;;;6.23;5.63;;;29.40;57.30;;;;;;4878126;29;20421;-72
2022/08/26 01:27:35;;;;;;;6.20;5.67;;;29.30;57.30;;;;;;4876447;29;20465;-72
2022/08/26 01:30:05;;;;;;;6.63;6.03;;;29.30;57.30;;;;;;4876774;29;20475;-72
2022/08/26 01:32:36;;;;;;;6.70;6.20;;;29.30;57.40;;;;;;4877443;29;20457;-72
2022/08/26 01:35:05;;;;;;;6.60;6.10;;;29.30;57.40;;;;;;4876532;29;20439;-72
2022/08/26 01:37:40;;;;;;;6.50;6.00;;;29.30;57.50;;;;;;4875178;29;20549;-72
2022/08/26 01:40:12;;;;;;;7.07;6.40;;;29.30;57.60;;;;;;4877939;29;20437;-72
2022/08/26 01:42:40;;;;;;;8.83;6.73;;;29.30;57.60;;;;;;4876116;29;20480;-72
2022/08/26 01:45:19;;;;;;;6.57;5.97;;;29.20;57.60;;;;;;4877741;29;20426;-72
2022/08/26 01:47:47;;;;;;;7.07;6.40;;;29.20;57.70;;;;;;4876291;29;20994;-72
2022/08/26 01:50:24;;;;;;;7.93;7.00;;;29.20;57.70;;;;;;4875815;29;20422;-72
2022/08/26 01:52:51;;;;;;;7.17;6.57;;;29.20;57.80;;;;;;4876325;29;20464;-72
2022/08/26 01:55:21;;;;;;;7.43;6.73;;;29.20;57.90;;;;;;4877769;29;20421;-72
2022/08/26 01:57:52;;;;;;;7.20;6.50;;;29.20;58.00;;;;;;4867058;29;20445;-72
2022/08/26 02:00:23;;;;;;;7.30;6.70;;;29.20;58.10;;;;;;4877823;29;20869;-72
2022/08/26 02:06:02;;;;;;;8.07;7.37;;;29.10;58.20;;;;;;4876311;29;20917;-71
2022/08/26 02:08:43;;;;;;;7.87;7.10;;;29.10;58.30;;;;;;4876242;29;20544;-72
2022/08/26 02:11:09;;;;;;;7.93;7.10;;;29.10;58.40;;;;;;4875744;29;20438;-72
2022/08/26 02:14:04;;;;;;;9.07;7.60;;;29.10;58.40;;;;;;4876023;29;20462;-72
2022/08/26 02:16:41;;;;;;;8.30;7.43;;;29.10;58.60;;;;;;4876302;29;20990;-72
2022/08/26 02:19:21;;;;;;;8.90;8.13;;;29.10;58.70;;;;;;4876198;29;20920;-72
2022/08/26 02:21:52;;;;;;;8.53;7.63;;;29.10;58.80;;;;;;4877344;29;20490;-71
2022/08/26 02:24:26;;;;;;;8.60;7.87;;;29.00;58.80;;;;;;4876087;29;20497;-72
2022/08/26 02:26:56;;;;;;;8.90;8.20;;;29.00;58.80;;;;;;4876366;29;20446;-73
2022/08/26 02:29:27;;;;;;;8.60;7.80;;;29.00;59.00;;;;;;4877191;29;20426;-71
2022/08/26 02:31:56;;;;;;;8.00;7.30;;;29.00;59.10;;;;;;4877576;29;20450;-72
2022/08/26 02:34:28;;;;;;;8.93;8.23;;;29.00;59.10;;;;;;4879471;29;20446;-71
2022/08/26 02:37:00;;;;;;;8.53;7.67;;;29.00;59.20;;;;;;4880860;29;20411;-72
2022/08/26 02:39:29;;;;;;;8.17;7.37;;;29.00;59.30;;;;;;4879151;29;20434;-72
2022/08/26 02:42:00;;;;;;;8.50;7.77;;;28.90;59.30;;;;;;4878874;29;20511;-72
2022/08/26 02:44:27;;;;;;;8.97;7.40;;;28.90;59.40;;;;;;4880775;29;20525;-73
2022/08/26 02:46:54;;;;;;;8.30;7.57;;;28.90;59.40;;;;;;4879336;29;20458;-72
2022/08/26 02:49:29;;;;;;;8.33;7.63;;;28.90;59.50;;;;;;4880289;29;20482;-73
2022/08/26 02:51:55;;;;;;;8.80;8.10;;;28.90;59.60;;;;;;4880021;29;20422;-72
2022/08/26 02:54:21;;;;;;;8.93;8.23;;;28.90;59.60;;;;;;4878755;29;20463;-71
2022/08/26 02:56:48;;;;;;;8.20;7.60;;;28.90;59.70;;;;;;4880593;29;20419;-71
2022/08/26 02:59:19;;;;;;;8.93;8.13;;;28.90;59.70;;;;;;4879141;29;20423;-72
2022/08/26 03:01:48;;;;;;;9.23;8.33;;;28.80;59.70;;;;;;4880402;29;20403;-71
2022/08/26 03:04:17;;;;;;;9.60;8.60;;;28.80;60.60;;;;;;4874838;29;20455;-71
2022/08/26 03:06:50;;;;;;;9.07;8.30;;;28.80;59.80;;;;;;4865546;29;20501;-71
2022/08/26 03:09:19;;;;;;;8.73;7.93;;;28.80;59.90;;;;;;4880221;29;20434;-71
2022/08/26 03:11:46;;;;;;;8.87;8.17;;;28.80;59.90;;;;;;4880075;29;20453;-72
2022/08/26 03:14:34;;;;;;;9.80;9.00;;;28.70;59.90;;;;;;4859727;29;21208;-71
2022/08/26 03:17:03;;;;;;;9.33;8.60;;;28.80;60.20;;;;;;4878623;29;20458;-72
2022/08/26 03:19:31;;;;;;;9.33;8.60;;;28.70;60.40;;;;;;4878318;29;20859;-71
2022/08/26 03:22:01;;;;;;;9.27;8.47;;;28.70;60.50;;;;;;4878612;29;20955;-71
2022/08/26 03:24:27;;;;;;;12.73;9.97;;;28.70;60.60;;;;;;4879902;29;20794;-72
2022/08/26 03:27:00;;;;;;;9.93;9.20;;;28.70;60.70;;;;;;4878430;29;21016;-72
2022/08/26 03:32:15;;;;;;;9.87;9.03;;;28.70;60.80;;;;;;4863161;29;20462;-72
2022/08/26 03:34:41;;;;;;;10.00;9.20;;;28.70;60.80;;;;;;4863013;29;20438;-72
2022/08/26 03:37:07;;;;;;;9.50;8.80;;;28.70;60.90;;;;;;4878676;29;20752;-72
2022/08/26 03:39:33;;;;;;;10.37;9.60;;;28.60;60.70;;;;;;4877556;29;20990;-72
2022/08/26 03:41:59;;;;;;;8.90;8.17;;;28.60;60.80;;;;;;4863159;29;20438;-72
2022/08/26 03:44:26;;;;;;;9.00;8.20;;;28.60;60.90;;;;;;4878709;29;20463;-72
2022/08/26 03:46:55;;;;;;;9.10;8.50;;;28.60;61.00;;;;;;4879325;29;20716;-72
2022/08/26 03:49:21;;;;;;;10.03;9.13;;;28.60;61.20;;;;;;4879401;29;20431;-71
2022/08/26 03:51:47;;;;;;;8.80;8.10;;;28.60;61.20;;;;;;4862902;29;20536;-72
2022/08/26 03:54:14;;;;;;;10.13;9.30;;;28.60;61.30;;;;;;4877976;29;20467;-71
2022/08/26 03:56:42;;;;;;;9.40;8.50;;;28.60;61.30;;;;;;4862534;29;20537;-72
2022/08/26 03:59:08;;;;;;;9.27;8.37;;;28.50;61.40;;;;;;4877948;29;20477;-72
2022/08/26 04:01:37;;;;;;;8.70;8.00;;;28.60;61.50;;;;;;4878000;29;20411;-73
2022/08/26 04:04:08;;;;;;;9.77;8.87;;;28.50;61.50;;;;;;4861914;29;20458;-71
2022/08/26 04:06:38;;;;;;;10.13;9.10;;;28.50;61.60;;;;;;4900346;29;20458;-72
2022/08/26 04:09:07;;;;;;;9.57;8.77;;;28.50;62.00;;;;;;4861272;29;20450;-71
2022/08/26 04:11:34;;;;;;;10.17;9.27;;;28.50;62.10;;;;;;4862120;29;20518;-71
2022/08/26 04:14:04;;;;;;;9.57;8.77;;;28.40;62.00;;;;;;4878184;29;20446;-71
2022/08/26 04:16:31;;;;;;;9.40;8.60;;;28.50;62.20;;;;;;4875934;29;20489;-72
2022/08/26 04:18:58;;;;;;;8.83;8.23;;;28.40;62.00;;;;;;4878577;29;20426;-74
2022/08/26 04:21:25;;;;;;;9.63;8.73;;;28.40;62.20;;;;;;4877249;29;20438;-71
2022/08/26 04:23:54;;;;;;;9.40;8.70;;;28.40;62.40;;;;;;4878180;29;20560;-73
2022/08/26 04:26:23;;;;;;;10.20;9.30;;;28.40;62.40;;;;;;4877155;29;20455;-71
2022/08/26 04:28:53;;;;;;;9.63;8.83;;;28.40;62.50;;;;;;4862186;29;20777;-71
2022/08/26 04:31:20;;;;;;;9.57;8.77;;;28.40;62.50;;;;;;4869404;29;20431;-71
2022/08/26 04:33:49;;;;;;;9.77;8.90;;;28.40;62.50;;;;;;4875206;29;20454;-72
2022/08/26 04:36:17;;;;;;;9.00;8.20;;;28.40;62.50;;;;;;4861928;29;20517;-72
2022/08/26 04:38:45;;;;;;;9.90;9.13;;;28.30;62.60;;;;;;4878066;29;20916;-72
2022/08/26 04:41:13;;;;;;;9.40;8.60;;;28.30;62.60;;;;;;4878380;29;21153;-72
2022/08/26 04:43:40;;;;;;;9.00;8.10;;;28.30;62.60;;;;;;4878496;29;20447;-72
2022/08/26 04:46:10;;;;;;;10.10;9.20;;;28.30;62.70;;;;;;4877025;29;20438;-71
2022/08/26 04:48:39;;;;;;;9.17;8.30;;;28.30;62.70;;;;;;4876763;29;20823;-71
2022/08/26 04:51:07;;;;;;;10.00;9.00;;;28.30;62.90;;;;;;4876859;29;20429;-72
2022/08/26 04:53:34;;;;;;;9.07;8.20;;;28.30;63.00;;;;;;4876730;29;20455;-72
2022/08/26 04:56:00;;;;;;;9.80;9.00;;;28.30;63.00;;;;;;4877807;29;20445;-71
2022/08/26 04:58:55;;;;;;;8.30;7.60;;;28.30;63.00;;;;;;4858013;29;20491;-72
2022/08/26 05:01:22;;;;;;;9.93;8.70;;;28.30;63.00;;;;;;4865905;29;20426;-71
2022/08/26 05:03:48;;;;;;;9.00;8.17;;;28.20;63.10;;;;;;4877073;29;20426;-72
2022/08/26 05:06:19;;;;;;;9.23;8.50;;;28.20;63.20;;;;;;4876981;29;20419;-72
2022/08/26 05:08:54;;;;;;;9.43;8.60;;;28.20;63.20;;;;;;4877535;29;20451;-72
2022/08/26 05:11:24;;;;;;;11.10;9.80;;;28.20;63.30;;;;;;4877533;29;21093;-73
2022/08/26 05:13:53;;;;;;;17.40;13.27;;;28.20;63.80;;;;;;4876764;29;20442;-72
2022/08/26 05:16:21;;;;;;;13.60;11.23;;;28.20;67.70;;;;;;4876481;29;20450;-71
2022/08/26 05:18:47;;;;;;;12.53;9.00;;;28.00;68.20;;;;;;4861010;29;20451;-71
2022/08/26 05:21:27;;;;;;;12.40;9.40;;;27.90;67.90;;;;;;4876798;29;20473;-71
2022/08/26 05:23:54;;;;;;;10.47;8.73;;;27.90;67.60;;;;;;4857990;29;20793;-71
2022/08/26 05:26:27;;;;;;;12.87;8.83;;;27.90;67.50;;;;;;4864863;29;20848;-71
2022/08/26 05:28:56;;;;;;;13.73;8.27;;;27.90;67.30;;;;;;4875650;29;20593;-71
2022/08/26 05:31:30;;;;;;;12.23;8.37;;;27.90;67.10;;;;;;4877656;29;20407;-71
2022/08/26 05:34:00;;;;;;;11.83;8.10;;;27.90;66.70;;;;;;4877451;29;20478;-71
2022/08/26 05:36:35;;;;;;;10.40;8.07;;;27.90;66.50;;;;;;4874729;29;20986;-70
2022/08/26 05:39:07;;;;;;;8.30;7.50;;;27.90;66.30;;;;;;4877674;29;20430;-71
2022/08/26 05:41:39;;;;;;;8.70;7.90;;;27.90;66.10;;;;;;4872855;29;20900;-71
2022/08/26 05:44:11;;;;;;;8.70;7.90;;;27.90;66.20;;;;;;4876528;29;20543;-71
2022/08/26 05:46:41;;;;;;;9.23;8.33;;;27.90;66.10;;;;;;4876577;29;20462;-71
2022/08/26 05:49:07;;;;;;;9.40;8.23;;;27.90;66.00;;;;;;4877713;29;20450;-71
2022/08/26 05:51:38;;;;;;;8.17;7.47;;;27.90;66.00;;;;;;4877794;29;20947;-70
2022/08/26 05:54:07;;;;;;;8.00;7.20;;;27.90;66.00;;;;;;4877833;29;20789;-71
2022/08/26 05:56:35;;;;;;;8.80;7.90;;;27.90;66.10;;;;;;4877704;29;20454;-72
2022/08/26 05:59:03;;;;;;;9.90;7.63;;;27.80;65.90;;;;;;4877629;29;20949;-72
2022/08/26 06:01:34;;;;;;;9.40;8.03;;;27.90;65.90;;;;;;4861011;29;20438;-71
2022/08/26 06:04:01;;;;;;;7.70;7.00;;;27.90;65.90;;;;;;4877726;29;20446;-71
2022/08/26 06:06:34;;;;;;;8.13;7.33;;;27.90;65.90;;;;;;4862463;29;20470;-71
2022/08/26 06:09:02;;;;;;;8.47;7.53;;;27.90;66.00;;;;;;4867572;29;20462;-72
2022/08/26 06:11:31;;;;;;;8.07;7.20;;;27.80;65.80;;;;;;4876666;29;20439;-72
2022/08/26 06:14:02;;;;;;;8.40;7.70;;;27.90;66.00;;;;;;4880092;29;20450;-71
2022/08/26 06:16:33;;;;;;;8.20;7.40;;;27.80;65.80;;;;;;4881412;29;20454;-71
2022/08/26 06:19:01;;;;;;;8.43;7.63;;;27.80;65.80;;;;;;4863774;29;20441;-71
2022/08/26 06:21:32;;;;;;;8.00;7.40;;;27.80;65.70;;;;;;4878784;29;20482;-72
2022/08/26 06:27:00;;;;;;;8.77;7.97;;;27.80;65.90;;;;;;4877964;29;20470;-71
2022/08/26 06:29:27;;;;;;;8.63;7.93;;;27.80;65.80;;;;;;4847139;29;20510;-71
2022/08/26 06:31:57;;;;;;;9.43;8.63;;;27.80;65.90;;;;;;4879364;29;20415;-71
2022/08/26 06:34:29;;;;;;;9.67;8.87;;;27.80;65.90;;;;;;4878164;29;20450;-71
2022/08/26 06:37:02;;;;;;;9.30;8.50;;;27.80;66.10;;;;;;4843717;29;20536;-71
2022/08/26 06:39:28;;;;;;;9.17;8.47;;;27.80;66.10;;;;;;4879521;29;20597;-71
2022/08/26 06:41:55;;;;;;;9.00;8.17;;;27.80;66.00;;;;;;4879209;29;20454;-72
2022/08/26 06:44:24;;;;;;;8.90;8.20;;;27.80;66.00;;;;;;4879454;29;20473;-71
2022/08/26 06:47:12;;;;;;;9.60;8.70;;;27.80;66.10;;;;;;4876341;29;20510;-71
2022/08/26 06:49:38;;;;;;;9.20;8.47;;;27.80;66.00;;;;;;4861100;29;20420;-72
2022/08/26 06:52:04;;;;;;;8.83;7.93;;;27.80;66.00;;;;;;4860912;29;20507;-72
2022/08/26 06:54:31;;;;;;;9.63;8.63;;;27.80;66.00;;;;;;4873009;29;20458;-71
2022/08/26 06:56:57;;;;;;;9.27;8.40;;;27.80;66.00;;;;;;4879387;29;20415;-72
2022/08/26 06:59:26;;;;;;;7.83;7.23;;;27.70;65.90;;;;;;4879413;29;20470;-73
2022/08/26 07:01:53;;;;;;;9.17;8.27;;;27.70;66.00;;;;;;4860784;29;20490;-73
2022/08/26 07:04:23;;;;;;;8.60;7.90;;;27.70;65.90;;;;;;4860484;29;20459;-75
2022/08/26 07:06:51;;;;;;;9.00;8.20;;;27.70;66.00;;;;;;4845722;29;20467;-72
2022/08/26 07:09:17;;;;;;;9.67;8.40;;;27.70;66.00;;;;;;4874774;29;20508;-72
2022/08/26 07:11:55;;;;;;;10.00;9.07;;;27.70;66.00;;;;;;4879933;29;20457;-74
2022/08/26 07:14:26;;;;;;;9.33;8.50;;;27.70;66.40;;;;;;4879058;29;20537;-74
2022/08/26 07:16:53;;;;;;;9.00;8.27;;;27.70;66.40;;;;;;4878855;29;20444;-72
2022/08/26 07:19:28;;;;;;;8.73;7.90;;;27.70;66.40;;;;;;4878197;29;20506;-73
2022/08/26 07:21:54;;;;;;;9.57;8.70;;;27.60;66.20;;;;;;4880245;29;20900;-74
2022/08/26 07:24:23;;;;;;;9.90;8.90;;;27.70;66.20;;;;;;4879574;29;20483;-72
2022/08/26 07:26:49;;;;;;;9.20;8.30;;;27.70;66.20;;;;;;4878048;29;21067;-73
2022/08/26 07:29:15;;;;;;;8.63;8.03;;;27.70;66.20;;;;;;4877780;29;20446;-72
2022/08/26 07:31:41;;;;;;;9.30;8.27;;;27.60;66.20;;;;;;4878174;29;20964;-74
2022/08/26 07:34:08;;;;;;;9.30;8.53;;;27.60;66.20;;;;;;4863030;29;20458;-75
2022/08/26 07:36:37;;;;;;;10.03;9.23;;;27.60;66.30;;;;;;4878658;29;20851;-75
2022/08/26 07:39:03;;;;;;;9.67;8.77;;;27.60;66.40;;;;;;4878276;29;20433;-76
2022/08/26 07:41:35;;;;;;;9.50;8.60;;;27.60;66.40;;;;;;4878558;29;20431;-75
2022/08/26 07:44:01;;;;;;;10.17;9.27;;;27.60;66.50;;;;;;4878816;29;20808;-76
2022/08/26 07:46:30;;;;;;;9.40;8.00;;;27.60;66.60;;;;;;4878898;29;20494;-74
2022/08/26 07:48:59;;;;;;;10.50;9.40;;;27.60;66.50;;;;;;4877047;29;20965;-77
2022/08/26 07:51:25;;;;;;;9.50;8.00;;;27.60;66.50;;;;;;4878899;29;20411;-76
2022/08/26 07:53:54;;;;;;;8.73;7.93;;;27.60;66.50;;;;;;4878433;29;20454;-74
2022/08/26 07:56:21;;;;;;;9.60;8.77;;;27.60;66.50;;;;;;4878167;29;20407;-74
2022/08/26 07:58:52;;;;;;;9.20;8.40;;;27.50;66.40;;;;;;4879491;29;20446;-74
2022/08/26 08:01:23;;;;;;;9.67;8.70;;;27.60;66.50;;;;;;4879377;29;20414;-74
2022/08/26 08:03:52;;;;;;;9.17;8.03;;;27.50;66.50;;;;;;4877890;29;20435;-74
2022/08/26 08:06:25;;;;;;;9.53;8.67;;;27.50;66.60;;;;;;4877504;29;20491;-74
2022/08/26 08:08:56;;;;;;;9.70;8.80;;;27.50;66.70;;;;;;4877393;29;20450;-72
2022/08/26 08:11:25;;;;;;;9.93;8.90;;;27.50;66.70;;;;;;4870599;29;20533;-72
2022/08/26 08:14:12;;;;;;;9.60;8.80;;;27.50;66.70;;;;;;4863612;29;20478;-72
2022/08/26 08:16:38;;;;;;;9.87;8.97;;;27.50;66.60;;;;;;4875685;29;20454;-72
2022/08/26 08:19:06;;;;;;;10.10;7.90;;;27.50;66.60;;;;;;4871627;29;20538;-72
2022/08/26 08:21:35;;;;;;;8.80;8.00;;;27.50;66.60;;;;;;4878073;29;20434;-72
2022/08/26 08:24:01;;;;;;;8.80;8.00;;;27.50;66.80;;;;;;4878468;29;20455;-72
2022/08/26 08:26:27;;;;;;;9.40;8.40;;;27.40;66.70;;;;;;4877650;29;20509;-72
2022/08/26 08:28:55;;;;;;;8.57;7.77;;;27.40;66.70;;;;;;4877251;29;20530;-72
2022/08/26 08:31:32;;;;;;;8.50;7.67;;;27.40;66.70;;;;;;4861087;29;20458;-72
2022/08/26 08:33:58;;;;;;;8.73;7.70;;;27.50;67.10;;;;;;4861901;29;20469;-72
2022/08/26 08:36:24;;;;;;;9.23;8.40;;;27.50;67.00;;;;;;4878665;29;20433;-72
2022/08/26 08:38:53;;;;;;;9.67;8.50;;;27.50;66.90;;;;;;4877268;29;20418;-73
2022/08/26 08:41:30;;;;;;;9.53;8.63;;;27.50;67.00;;;;;;4877513;29;20949;-72
2022/08/26 08:44:00;;;;;;;8.60;7.80;;;27.40;66.70;;;;;;4877239;29;20538;-72
2022/08/26 08:46:30;;;;;;;8.50;7.83;;;27.40;66.70;;;;;;4876510;29;20473;-72
2022/08/26 08:48:58;;;;;;;9.30;7.20;;;27.40;66.80;;;;;;4862985;29;20458;-73
2022/08/26 08:51:44;;;;;;;8.93;8.03;;;27.40;66.70;;;;;;4879780;29;20407;-72
2022/08/26 08:54:18;;;;;;;7.90;7.10;;;27.40;66.70;;;;;;4878453;29;20462;-72
2022/08/26 08:56:57;;;;;;;7.90;7.30;;;27.40;66.70;;;;;;4878748;29;20430;-72
2022/08/26 08:59:26;;;;;;;6.80;6.20;;;27.40;66.70;;;;;;4878660;29;20429;-72
2022/08/26 09:01:55;;;;;;;8.10;7.30;;;27.40;66.70;;;;;;4878548;29;20513;-72
2022/08/26 09:04:21;;;;;;;7.63;7.03;;;27.40;66.80;;;;;;4878562;29;20856;-73
2022/08/26 09:06:52;;;;;;;9.43;7.50;;;27.40;66.80;;;;;;4878069;29;20454;-72
2022/08/26 09:09:29;;;;;;;7.53;6.83;;;27.40;66.90;;;;;;4879322;29;20446;-72
2022/08/26 09:11:59;;;;;;;8.03;6.10;;;27.40;66.80;;;;;;4863392;29;20517;-73
2022/08/26 09:14:26;;;;;;;9.43;7.07;;;27.40;66.90;;;;;;4878408;29;20517;-73
2022/08/26 09:16:58;;;;;;;6.67;6.17;;;27.40;67.10;;;;;;4862987;29;20502;-73
2022/08/26 09:19:48;;;;;;;6.43;5.80;;;27.40;67.20;;;;;;4879367;29;20435;-72
2022/08/26 09:22:29;;;;;;;6.70;6.20;;;27.30;67.00;;;;;;4862907;29;20783;-72
2022/08/26 09:24:55;;;;;;;6.30;5.70;;;27.30;67.10;;;;;;4859623;29;20455;-72
2022/08/26 09:27:44;;;;;;;8.77;5.90;;;27.30;68.00;;;;;;4859342;29;20840;-72
2022/08/26 09:30:29;;;;;;;6.40;5.90;;;27.30;67.00;;;;;;4844410;29;20496;-72
2022/08/26 09:33:09;;;;;;;6.43;5.83;;;27.30;67.00;;;;;;4859702;29;20470;-72
2022/08/26 09:35:41;;;;;;;6.60;6.00;;;27.30;67.00;;;;;;4859672;29;21061;-72
2022/08/26 09:38:25;;;;;;;6.83;5.43;;;27.30;67.10;;;;;;4860763;29;20501;-72
2022/08/26 09:41:00;;;;;;;5.47;4.90;;;27.30;67.10;;;;;;4860971;29;20419;-72
2022/08/26 09:43:29;;;;;;;5.87;5.27;;;27.30;67.20;;;;;;4872738;29;20454;-73
2022/08/26 09:46:23;;;;;;;5.77;5.27;;;27.30;67.20;;;;;;4880738;29;20411;-71
2022/08/26 09:48:52;;;;;;;5.30;4.73;;;27.30;67.20;;;;;;4882563;29;20805;-72
2022/08/26 09:51:25;;;;;;;5.93;5.43;;;27.30;67.10;;;;;;4882284;29;20414;-71
2022/08/26 09:53:54;;;;;;;5.90;4.87;;;27.30;67.20;;;;;;4865656;29;20443;-71
2022/08/26 09:56:22;;;;;;;7.37;5.20;;;27.30;67.30;;;;;;4865136;29;20441;-71
2022/08/26 09:58:51;;;;;;;8.83;5.53;;;27.30;67.40;;;;;;4882006;29;20466;-71
2022/08/26 10:01:42;;;;;;;5.97;5.47;;;27.30;67.30;;;;;;4881533;29;20467;-72
2022/08/26 10:04:11;;;;;;;5.33;4.83;;;27.30;67.10;;;;;;4881948;29;20442;-72
2022/08/26 10:06:59;;;;;;;7.20;4.93;;;27.30;67.10;;;;;;4880078;29;20478;-72
2022/08/26 10:09:27;;;;;;;8.10;5.40;;;27.30;67.30;;;;;;4869296;29;20968;-75
2022/08/26 10:12:04;;;;;;;4.90;4.40;;;27.30;67.30;;;;;;4879981;29;20789;-75
2022/08/26 10:14:52;;;;;;;5.93;5.53;;;27.30;67.30;;;;;;4879713;29;20734;-75
2022/08/26 10:17:40;;;;;;;6.00;5.40;;;27.30;67.40;;;;;;4877433;29;20509;-75
2022/08/26 10:20:19;;;;;;;5.57;5.07;;;27.30;67.50;;;;;;4868436;29;20450;-75
2022/08/26 10:22:48;;;;;;;6.30;4.80;;;27.30;67.50;;;;;;4878684;29;20883;-75
2022/08/26 10:25:19;;;;;;;6.73;5.23;;;27.30;67.50;;;;;;4879201;29;20450;-75
2022/08/26 10:28:03;;;;;;;5.17;4.67;;;27.30;67.50;;;;;;4878165;29;20526;-75
2022/08/26 10:30:40;;;;;;;6.30;4.53;;;27.30;67.60;;;;;;4889268;29;20463;-75
2022/08/26 10:33:13;;;;;;;5.47;4.83;;;27.30;67.70;;;;;;4878497;29;20544;-73
2022/08/26 10:35:49;;;;;;;5.10;4.37;;;27.20;67.60;;;;;;4879825;29;20776;-73
2022/08/26 10:38:27;;;;;;;5.20;4.70;;;27.20;67.60;;;;;;4861927;29;20502;-73
2022/08/26 10:41:01;;;;;;;5.30;4.60;;;27.20;67.50;;;;;;4879254;29;20460;-73
2022/08/26 10:43:34;;;;;;;4.60;4.20;;;27.20;67.60;;;;;;4877889;29;20470;-73
2022/08/26 10:46:05;;;;;;;4.63;4.23;;;27.20;67.70;;;;;;4863848;29;20430;-73
2022/08/26 10:48:46;;;;;;;6.63;5.00;;;27.20;67.60;;;;;;4880039;29;21314;-73
2022/08/26 10:51:26;;;;;;;5.33;4.93;;;27.30;67.60;;;;;;4879053;29;20434;-72
2022/08/26 10:54:01;;;;;;;4.80;4.40;;;27.20;67.60;;;;;;4876569;29;20525;-73
2022/08/26 10:56:43;;;;;;;4.90;4.47;;;27.20;67.50;;;;;;4878493;29;20450;-73
2022/08/26 10:59:29;;;;;;;4.67;4.27;;;27.20;67.60;;;;;;4878528;29;20521;-73
2022/08/26 11:01:58;;;;;;;6.33;4.80;;;27.20;67.60;;;;;;4879000;29;20443;-73
2022/08/26 11:04:42;;;;;;;7.80;5.20;;;27.20;67.60;;;;;;4862322;29;20458;-73
2022/08/26 11:07:51;;;;;;;6.43;5.70;;;27.20;67.70;;;;;;4878095;29;20470;-75
2022/08/26 11:10:20;;;;;;;7.63;5.50;;;27.20;67.60;;;;;;4878949;29;20854;-75
2022/08/26 11:12:54;;;;;;;5.10;4.70;;;27.20;67.70;;;;;;4861564;29;20553;-75
2022/08/26 11:15:20;;;;;;;5.40;4.87;;;27.20;67.60;;;;;;4877925;29;20536;-75
2022/08/26 11:17:49;;;;;;;6.33;5.63;;;27.20;67.50;;;;;;4877914;29;20463;-75
2022/08/26 11:20:21;;;;;;;4.80;4.40;;;27.20;67.20;;;;;;4878866;29;20457;-75
2022/08/26 11:22:50;;;;;;;5.93;5.30;;;27.30;67.30;;;;;;4861209;29;21050;-75
2022/08/26 11:25:19;;;;;;;5.43;4.93;;;27.20;67.10;;;;;;4879437;29;20845;-76
2022/08/26 11:27:49;;;;;;;5.00;4.53;;;27.30;67.20;;;;;;4862433;29;20539;-76
2022/08/26 11:30:15;;;;;;;7.00;5.17;;;27.20;67.00;;;;;;4875217;29;20420;-76
2022/08/26 11:32:42;;;;;;;5.17;4.70;;;27.30;67.20;;;;;;4886171;29;20486;-75
2022/08/26 11:35:17;;;;;;;8.37;5.50;;;27.30;67.20;;;;;;4890856;29;20790;-74
2022/08/26 11:37:47;;;;;;;5.90;5.30;;;27.30;67.20;;;;;;4876980;29;20502;-73
2022/08/26 11:40:28;;;;;;;5.23;4.70;;;27.30;67.30;;;;;;4877611;29;20446;-73
2022/08/26 11:43:06;;;;;;;4.90;4.50;;;27.30;67.30;;;;;;4874325;29;20978;-75
2022/08/26 11:45:43;;;;;;;5.40;4.90;;;27.30;67.20;;;;;;4872608;29;20473;-73
2022/08/26 11:48:18;;;;;;;5.37;4.87;;;27.20;67.10;;;;;;4876603;29;20473;-72
2022/08/26 11:50:56;;;;;;;6.30;5.43;;;27.30;67.20;;;;;;4862428;29;20813;-73
2022/08/26 11:53:46;;;;;;;5.10;4.57;;;27.30;67.20;;;;;;4851013;29;20835;-73
2022/08/26 11:56:31;;;;;;;5.40;4.80;;;27.30;67.10;;;;;;4878923;29;20585;-73
2022/08/26 11:58:59;;;;;;;7.57;4.70;;;27.30;66.90;;;;;;4878343;29;20462;-72
2022/08/26 12:01:29;;;;;;;6.37;4.70;;;27.30;66.90;;;;;;4877184;29;20810;-73
2022/08/26 12:03:58;;;;;;;7.23;5.00;;;27.30;66.90;;;;;;4861552;29;20466;-73
2022/08/26 12:06:35;;;;;;;6.43;4.97;;;27.30;66.90;;;;;;4878516;29;20793;-73
2022/08/26 12:09:07;;;;;;;5.77;5.17;;;27.30;66.90;;;;;;4859418;29;20420;-73
2022/08/26 12:11:36;;;;;;;6.90;4.40;;;27.30;66.90;;;;;;4864480;29;20455;-73
2022/08/26 12:14:16;;;;;;;4.73;4.33;;;27.30;66.80;;;;;;4878379;29;20837;-73
2022/08/26 12:16:42;;;;;;;5.23;4.80;;;27.30;66.80;;;;;;4877740;29;20502;-73
2022/08/26 12:19:28;;;;;;;6.00;4.63;;;27.30;66.90;;;;;;4878588;29;20446;-73
2022/08/26 12:22:26;;;;;;;6.70;5.03;;;27.30;66.90;;;;;;4878254;29;20425;-73
2022/08/26 12:24:58;;;;;;;6.17;4.40;;;27.30;66.80;;;;;;4878071;29;20415;-73
2022/08/26 12:27:40;;;;;;;5.27;4.87;;;27.30;66.80;;;;;;4877124;29;21059;-73
2022/08/26 12:30:13;;;;;;;5.77;5.03;;;27.30;66.70;;;;;;4878524;29;20406;-73
2022/08/26 12:32:43;;;;;;;5.50;5.00;;;27.30;66.80;;;;;;4878204;29;20515;-73
2022/08/26 12:35:15;;;;;;;4.50;4.10;;;27.30;66.80;;;;;;4878255;29;20455;-73
2022/08/26 12:37:45;;;;;;;4.97;4.50;;;27.30;66.90;;;;;;4876871;29;20446;-73
2022/08/26 12:40:26;;;;;;;4.90;4.37;;;27.30;66.70;;;;;;4878099;29;20406;-73
2022/08/26 12:42:53;;;;;;;4.43;4.13;;;27.30;66.60;;;;;;4876228;29;21080;-73
2022/08/26 12:45:32;;;;;;;7.40;4.70;;;27.30;66.60;;;;;;4876934;29;20547;-73
2022/08/26 12:48:04;;;;;;;4.00;3.70;;;27.30;66.60;;;;;;4876522;29;20524;-73
2022/08/26 12:50:34;;;;;;;5.23;3.77;;;27.30;66.60;;;;;;4878206;29;20907;-73
2022/08/26 12:53:05;;;;;;;5.33;4.27;;;27.30;66.60;;;;;;4876495;29;20473;-73
2022/08/26 12:55:31;;;;;;;4.13;3.53;;;27.30;66.60;;;;;;4877975;29;20963;-73
2022/08/26 12:58:15;;;;;;;4.80;4.30;;;27.30;66.40;;;;;;4850347;29;20438;-73
2022/08/26 13:00:53;;;;;;;4.50;4.10;;;27.30;66.50;;;;;;4877349;29;21009;-73
2022/08/26 13:03:42;;;;;;;4.30;3.80;;;27.30;66.50;;;;;;4877732;29;20899;-73
2022/08/26 13:06:11;;;;;;;4.00;3.70;;;27.30;66.40;;;;;;4877003;29;20434;-73
2022/08/26 13:08:42;;;;;;;3.80;3.50;;;27.30;66.50;;;;;;4876559;29;20541;-73
2022/08/26 13:11:17;;;;;;;3.93;3.60;;;27.30;66.50;;;;;;4877706;29;20434;-73
2022/08/26 13:14:04;;;;;;;4.47;4.17;;;27.30;66.70;;;;;;4877330;29;20510;-73
2022/08/26 13:16:30;;;;;;;4.20;3.87;;;27.30;66.60;;;;;;4870356;29;20446;-73
2022/08/26 13:18:59;;;;;;;4.37;3.97;;;27.30;66.50;;;;;;4877356;29;20800;-74